Salem, New Hampshire
Current Conditions -  °F | °C
As of 1:54 PM on Friday 21 Nov 2014 (Local Time) from KLWM Reporting Station
Broken Clouds Broken Clouds  
Wind Chill: 23°   Ceiling: 5500
Heat Index: 32°   Visibility: 10mi
Dew Point: 10°   Wind: 13mph
Humidity: 40%   Direction: 280°W
Pressure: 30.16"   Gusts: 26mph
Location:  42.79°N, 71.2°W
Report Text: KLWM 211854Z 28011G23KT 10SM BKN055 00/M12 A3016 RMK AO2 SLP216 T00001122
Loading
Personal Weather Stations






























Interactive Weather Map New forecast layout! Learn more

10-Day Weather Forecast

Advertisements
Track Severe Weather on mobile